createdAt,value
2023-02-01T00:01:10.753Z,88.95
2023-02-01T00:03:38.275Z,94.68
2023-02-01T00:06:05.831Z,107.25
2023-02-01T00:08:33.421Z,111.15
2023-02-01T00:11:06.332Z,86.03
2023-02-01T00:13:36.300Z,98.38
2023-02-01T00:16:13.318Z,90.47
2023-02-01T00:18:40.807Z,90.40
2023-02-01T00:21:08.193Z,88.18
2023-02-01T00:23:37.201Z,90.68
2023-02-01T00:26:07.138Z,85.72
2023-02-01T00:28:35.100Z,76.65
2023-02-01T00:31:05.372Z,76.75
2023-02-01T00:33:33.796Z,79.40
2023-02-01T00:36:04.400Z,86.07
2023-02-01T00:38:33.036Z,74.13
2023-02-01T00:41:08.632Z,75.57
2023-02-01T00:43:36.167Z,79.88
2023-02-01T00:46:04.669Z,74.03
2023-02-01T00:48:32.401Z,71.63
2023-02-01T00:51:13.409Z,78.80
2023-02-01T00:53:41.423Z,76.70
2023-02-01T00:56:09.448Z,70.28
2023-02-01T00:58:37.347Z,80.43
2023-02-01T01:01:09.123Z,73.05
2023-02-01T01:03:39.469Z,84.95
2023-02-01T01:06:17.695Z,72.85
2023-02-01T01:08:45.426Z,68.32
2023-02-01T01:11:17.005Z,81.10
2023-02-01T01:13:47.529Z,71.35
2023-02-01T01:16:16.035Z,73.00
2023-02-01T01:18:43.868Z,74.78
2023-02-01T01:21:14.783Z,66.28
2023-02-01T01:23:42.627Z,69.00
2023-02-01T01:26:13.520Z,73.13
2023-02-01T01:28:41.048Z,67.82
2023-02-01T01:31:12.612Z,70.00
2023-02-01T01:33:40.356Z,72.53
2023-02-01T01:36:12.807Z,72.25
2023-02-01T01:41:10.320Z,68.38
2023-02-01T01:43:58.573Z,68.15
2023-02-01T01:46:33.971Z,82.25
2023-02-01T01:49:25.055Z,79.13
2023-02-01T01:51:56.833Z,78.35
2023-02-01T01:54:27.156Z,71.05
2023-02-01T01:57:07.478Z,69.45
2023-02-01T01:59:38.052Z,76.05
2023-02-01T02:02:06.112Z,73.57
2023-02-01T02:04:35.265Z,76.90
2023-02-01T02:07:28.003Z,76.43
2023-02-01T02:10:00.864Z,81.82
2023-02-01T02:12:29.616Z,86.15
2023-02-01T02:14:57.499Z,82.30
2023-02-01T02:17:58.217Z,91.07
2023-02-01T02:21:09.998Z,97.07
2023-02-01T02:24:02.010Z,67.32
2023-02-01T02:29:25.702Z,85.53
2023-02-01T02:32:05.031Z,88.15
2023-02-01T02:34:47.651Z,91.85
2023-02-01T02:37:34.715Z,90.65
2023-02-01T02:40:07.646Z,95.97
2023-02-01T02:43:13.573Z,88.78
2023-02-01T02:46:07.446Z,83.50
2023-02-01T02:48:43.639Z,92.80
2023-02-01T02:51:44.255Z,90.32
2023-02-01T02:54:33.808Z,91.80
2023-02-01T02:57:23.599Z,95.60
2023-02-01T03:00:10.605Z,89.78
2023-02-01T03:02:57.124Z,90.07
2023-02-01T03:05:24.785Z,91.00
2023-02-01T03:08:02.894Z,91.55
2023-02-01T03:10:50.959Z,89.90
2023-02-01T03:13:43.012Z,85.53
2023-02-01T03:16:32.488Z,89.30
2023-02-01T03:19:50.540Z,85.32
2023-02-01T03:22:23.060Z,88.97
2023-02-01T03:25:19.496Z,93.68
2023-02-01T03:28:01.058Z,93.18
2023-02-01T03:30:34.420Z,80.05
2023-02-01T03:33:08.354Z,77.53
2023-02-01T03:35:58.864Z,89.07
2023-02-01T03:38:35.516Z,80.82
2023-02-01T03:41:41.430Z,87.07
2023-02-01T03:44:17.723Z,87.50
2023-02-01T03:47:06.042Z,90.13
2023-02-01T03:49:41.599Z,79.63
2023-02-01T03:52:15.556Z,83.35
2023-02-01T03:54:45.949Z,80.50
2023-02-01T03:57:17.970Z,78.47
2023-02-01T03:59:46.674Z,81.38
2023-02-01T04:02:14.487Z,78.45
2023-02-01T04:04:42.145Z,81.45
2023-02-01T04:07:10.166Z,81.55
2023-02-01T04:09:37.697Z,79.18
2023-02-01T04:12:05.461Z,80.18
2023-02-01T04:14:32.900Z,76.38
2023-02-01T04:17:00.387Z,90.07
2023-02-01T04:19:27.860Z,92.20
2023-02-01T04:21:55.342Z,96.43
2023-02-01T04:24:22.869Z,86.53
2023-02-01T04:26:50.453Z,93.20
2023-02-01T04:29:17.988Z,82.47
2023-02-01T04:31:45.468Z,88.60
2023-02-01T04:34:13.162Z,80.68
2023-02-01T04:36:40.666Z,71.35
2023-02-01T04:39:09.726Z,78.80
2023-02-01T04:41:37.392Z,71.80
2023-02-01T04:44:05.074Z,78.38
2023-02-01T04:46:32.547Z,78.78
2023-02-01T04:49:00.171Z,92.72
2023-02-01T04:51:27.665Z,74.05
2023-02-01T04:53:56.853Z,77.97
2023-02-01T04:56:24.327Z,82.88
2023-02-01T04:58:51.751Z,72.47
2023-02-01T05:01:19.314Z,77.95
2023-02-01T05:03:46.941Z,83.40
2023-02-01T05:06:14.419Z,85.00
2023-02-01T05:08:41.839Z,79.72
2023-02-01T05:11:29.318Z,77.03
2023-02-01T05:13:56.952Z,78.47
2023-02-01T05:16:24.737Z,82.18
2023-02-01T05:18:52.511Z,90.30
2023-02-01T05:21:20.248Z,93.60
2023-02-01T05:24:06.247Z,89.88
2023-02-01T05:26:34.715Z,91.38
2023-02-01T05:29:02.272Z,83.82
2023-02-01T05:31:30.166Z,86.22
2023-02-01T05:33:57.769Z,86.78
2023-02-01T05:36:25.506Z,70.82
2023-02-01T05:38:52.986Z,70.82
2023-02-01T05:41:20.502Z,78.78
2023-02-01T05:43:47.950Z,74.13
2023-02-01T05:46:15.757Z,73.85
2023-02-01T05:48:43.950Z,79.45
2023-02-01T05:51:12.363Z,81.30
2023-02-01T05:53:40.037Z,73.00
2023-02-01T05:56:08.069Z,83.10
2023-02-01T05:58:35.582Z,78.70
2023-02-01T06:01:04.071Z,88.22
2023-02-01T06:03:31.754Z,86.25
2023-02-01T06:05:59.345Z,75.35
2023-02-01T06:08:26.846Z,89.97
2023-02-01T06:11:02.838Z,97.07
2023-02-01T06:13:32.136Z,102.05
2023-02-01T06:16:06.919Z,102.88
2023-02-01T06:18:35.854Z,97.18
2023-02-01T06:21:03.969Z,92.78
2023-02-01T06:23:31.870Z,84.18
2023-02-01T06:26:05.334Z,73.78
2023-02-01T06:28:33.887Z,88.07
2023-02-01T06:31:07.704Z,83.38
2023-02-01T06:33:36.472Z,70.75
2023-02-01T06:36:07.528Z,80.18
2023-02-01T06:38:36.172Z,84.70
2023-02-01T06:41:04.895Z,82.80
2023-02-01T06:43:33.673Z,77.47
2023-02-01T06:46:06.340Z,90.30
2023-02-01T06:48:34.482Z,90.82
2023-02-01T06:51:02.307Z,107.90
2023-02-01T06:53:29.848Z,94.93
2023-02-01T06:56:02.514Z,94.03
2023-02-01T06:58:34.487Z,90.13
2023-02-01T07:01:10.018Z,96.10
2023-02-01T07:03:38.360Z,86.38
2023-02-01T07:06:06.981Z,82.47
2023-02-01T07:08:37.322Z,73.88
2023-02-01T07:11:10.311Z,77.45
2023-02-01T07:13:38.483Z,81.32
2023-02-01T07:16:10.107Z,88.32
2023-02-01T07:18:38.003Z,88.03
2023-02-01T07:21:05.729Z,84.95
2023-02-01T07:23:33.398Z,80.03
2023-02-01T07:26:04.247Z,86.30
2023-02-01T07:28:34.388Z,85.53
2023-02-01T07:31:06.878Z,84.10
2023-02-01T07:33:35.219Z,77.88
2023-02-01T07:36:05.397Z,75.80
2023-02-01T07:38:32.960Z,78.45
2023-02-01T07:41:02.024Z,73.25
2023-02-01T07:43:30.217Z,74.53
2023-02-01T07:45:58.459Z,80.40
2023-02-01T07:48:27.083Z,92.65
2023-02-01T07:51:03.117Z,77.07
2023-02-01T07:53:32.276Z,70.68
2023-02-01T07:56:00.058Z,86.30
2023-02-01T07:58:28.863Z,83.63
2023-02-01T08:01:15.922Z,88.30
2023-02-01T08:03:43.510Z,75.95
2023-02-01T08:06:11.361Z,80.97
2023-02-01T08:08:39.176Z,77.70
2023-02-01T08:11:07.856Z,71.88
2023-02-01T08:13:36.358Z,78.35
2023-02-01T08:16:06.422Z,90.43
2023-02-01T08:18:34.533Z,88.90
2023-02-01T08:21:14.650Z,87.60
2023-02-01T08:23:43.413Z,84.03
2023-02-01T08:26:15.860Z,94.85
2023-02-01T08:28:47.302Z,93.25
2023-02-01T08:31:16.762Z,92.28
2023-02-01T08:33:48.507Z,90.53
2023-02-01T08:36:15.950Z,107.53
2023-02-01T08:38:43.451Z,104.03
2023-02-01T08:41:16.200Z,113.07
2023-02-01T08:43:43.703Z,109.85
2023-02-01T08:46:12.341Z,107.38
2023-02-01T08:48:40.321Z,100.28
2023-02-01T08:51:11.103Z,95.82
2023-02-01T08:53:41.219Z,104.82
2023-02-01T08:56:09.826Z,95.82
2023-02-01T08:58:37.616Z,100.55
2023-02-01T09:01:10.166Z,94.82
2023-02-01T09:03:38.101Z,106.72
2023-02-01T09:06:08.482Z,111.95
2023-02-01T09:08:37.699Z,99.50
2023-02-01T09:11:08.338Z,98.00
2023-02-01T09:13:36.613Z,111.00
2023-02-01T09:16:05.166Z,98.05
2023-02-01T09:18:32.783Z,106.15
2023-02-01T09:21:02.323Z,103.70
2023-02-01T09:23:29.993Z,105.75
2023-02-01T09:26:04.647Z,113.35
2023-02-01T09:28:32.407Z,104.50
2023-02-01T09:31:01.536Z,111.10
2023-02-01T09:33:30.122Z,115.43
2023-02-01T09:36:02.806Z,109.78
2023-02-01T09:38:31.068Z,109.85
2023-02-01T09:41:00.142Z,121.80
2023-02-01T09:43:40.873Z,113.20
2023-02-01T09:46:11.143Z,123.95
2023-02-01T09:48:41.851Z,126.03
2023-02-01T09:51:17.995Z,123.78
2023-02-01T09:54:08.269Z,122.55
2023-02-01T09:56:43.253Z,117.13
2023-02-01T09:59:47.262Z,108.60
2023-02-01T10:02:29.196Z,127.22
2023-02-01T10:05:00.523Z,127.40
2023-02-01T10:07:28.003Z,134.77
2023-02-01T10:10:05.935Z,123.35
2023-02-01T10:13:03.584Z,129.95
2023-02-01T10:16:05.441Z,132.15
2023-02-01T10:19:04.049Z,140.35
2023-02-01T10:21:59.046Z,141.45
2023-02-01T10:24:42.426Z,147.55
2023-02-01T10:27:15.756Z,143.10
2023-02-01T10:29:52.688Z,145.23
2023-02-01T10:32:29.673Z,140.60
2023-02-01T10:35:16.713Z,144.82
2023-02-01T10:37:48.967Z,132.05
2023-02-01T10:40:22.893Z,138.75
2023-02-01T10:42:53.199Z,141.77
2023-02-01T10:45:23.835Z,153.93
2023-02-01T10:47:53.312Z,140.15
2023-02-01T10:50:47.488Z,145.80
2023-02-01T10:53:25.075Z,141.70
2023-02-01T10:55:56.748Z,137.88
2023-02-01T10:58:30.374Z,135.15
2023-02-01T11:01:07.275Z,140.95
2023-02-01T11:03:45.051Z,139.93
2023-02-01T11:06:26.854Z,138.30
2023-02-01T11:09:09.521Z,135.82
2023-02-01T11:11:58.399Z,142.30
2023-02-01T11:14:25.895Z,145.95
2023-02-01T11:17:00.965Z,140.45
2023-02-01T11:19:29.557Z,138.40
2023-02-01T11:22:01.975Z,129.60
2023-02-01T11:24:36.529Z,132.52
2023-02-01T11:27:07.192Z,131.57
2023-02-01T11:29:41.933Z,126.35
2023-02-01T11:32:11.270Z,140.07
2023-02-01T11:34:46.881Z,127.85
2023-02-01T11:37:24.912Z,137.57
2023-02-01T11:40:27.599Z,128.73
2023-02-01T11:45:38.632Z,126.57
2023-02-01T11:48:26.203Z,126.88
2023-02-01T11:51:12.336Z,139.15
2023-02-01T11:54:17.419Z,129.40
2023-02-01T11:57:06.052Z,117.47
2023-02-01T11:59:56.350Z,121.18
2023-02-01T12:02:46.924Z,93.97
2023-02-01T12:05:42.926Z,127.00
2023-02-01T12:08:22.586Z,131.35
2023-02-01T12:10:58.953Z,125.03
2023-02-01T12:13:54.177Z,121.90
2023-02-01T12:17:14.948Z,113.55
2023-02-01T12:20:01.077Z,112.70
2023-02-01T12:22:59.740Z,128.80
2023-02-01T12:25:47.331Z,126.53
2023-02-01T12:28:25.702Z,114.72
2023-02-01T12:31:06.162Z,126.20
2023-02-01T12:33:52.472Z,124.85
2023-02-01T12:36:41.546Z,117.75
2023-02-01T12:39:24.668Z,118.07
2023-02-01T12:41:58.400Z,121.40
2023-02-01T12:44:32.419Z,125.20
2023-02-01T12:47:09.212Z,119.57
2023-02-01T12:49:47.537Z,115.72
2023-02-01T12:52:45.554Z,117.22
2023-02-01T12:55:36.522Z,120.03
2023-02-01T12:58:45.318Z,118.75
2023-02-01T13:01:21.898Z,117.55
2023-02-01T13:03:58.702Z,127.72
2023-02-01T13:06:32.289Z,128.38
2023-02-01T13:09:29.023Z,122.85
2023-02-01T13:12:02.241Z,119.70
2023-02-01T13:14:56.156Z,118.15
2023-02-01T13:17:26.184Z,124.45
2023-02-01T13:20:16.554Z,118.35
2023-02-01T13:22:52.869Z,126.93
2023-02-01T13:25:38.508Z,117.20
2023-02-01T13:28:13.791Z,120.18
2023-02-01T13:30:58.456Z,116.18
2023-02-01T13:33:56.275Z,126.60
2023-02-01T13:36:53.590Z,134.27
2023-02-01T13:39:38.942Z,116.28
2023-02-01T13:42:13.068Z,122.25
2023-02-01T13:44:45.164Z,127.50
2023-02-01T13:47:39.501Z,120.28
2023-02-01T13:50:25.796Z,119.22
2023-02-01T13:52:57.740Z,116.80
2023-02-01T13:55:37.280Z,111.32
2023-02-01T13:58:14.556Z,112.88
2023-02-01T14:00:46.658Z,114.35
2023-02-01T14:03:20.265Z,115.40
2023-02-01T14:05:48.106Z,116.25
2023-02-01T14:08:24.151Z,115.00
2023-02-01T14:10:59.248Z,108.78
2023-02-01T14:13:37.193Z,118.30
2023-02-01T14:16:04.741Z,122.70
2023-02-01T14:18:38.389Z,112.15
2023-02-01T14:21:31.027Z,115.00
2023-02-01T14:26:45.297Z,108.63
2023-02-01T14:29:26.415Z,114.88
2023-02-01T14:32:19.025Z,123.18
2023-02-01T14:37:21.901Z,113.43
2023-02-01T14:42:48.448Z,115.43
2023-02-01T14:45:25.443Z,108.22
2023-02-01T14:48:08.566Z,110.88
2023-02-01T14:50:43.661Z,128.55
2023-02-01T14:53:11.307Z,114.47
2023-02-01T14:55:52.325Z,125.15
2023-02-01T14:58:41.641Z,115.45
2023-02-01T15:01:32.007Z,118.85
2023-02-01T15:04:17.903Z,116.65
2023-02-01T15:07:08.362Z,116.65
2023-02-01T15:09:48.611Z,101.47
2023-02-01T15:12:28.715Z,112.63
2023-02-01T15:15:25.393Z,112.43
2023-02-01T15:18:03.066Z,118.53
2023-02-01T15:20:32.964Z,109.20
2023-02-01T15:23:08.725Z,117.82
2023-02-01T15:25:40.295Z,178.35
2023-02-01T15:28:14.843Z,155.63
2023-02-01T15:30:57.553Z,159.85
2023-02-01T15:33:27.243Z,130.82
2023-02-01T15:36:06.974Z,113.47
2023-02-01T15:38:38.369Z,121.85
2023-02-01T15:41:09.051Z,135.40
2023-02-01T15:43:47.509Z,123.00
2023-02-01T15:46:18.802Z,120.88
2023-02-01T15:48:50.079Z,118.00
2023-02-01T15:51:24.012Z,119.15
2023-02-01T15:53:56.600Z,119.97
2023-02-01T15:56:30.662Z,111.20
2023-02-01T15:59:03.534Z,113.40
2023-02-01T16:01:31.594Z,113.30
2023-02-01T16:04:24.742Z,118.03
2023-02-01T16:06:56.356Z,116.82
2023-02-01T16:09:35.948Z,117.22
2023-02-01T16:12:05.048Z,115.15
2023-02-01T16:14:33.426Z,103.68
2023-02-01T16:17:00.983Z,116.80
2023-02-01T16:19:29.457Z,118.40
2023-02-01T16:21:57.625Z,109.47
2023-02-01T16:24:27.066Z,125.75
2023-02-01T16:26:54.851Z,118.75
2023-02-01T16:29:22.704Z,117.97
2023-02-01T16:31:50.873Z,112.32
2023-02-01T16:34:19.209Z,97.55
2023-02-01T16:36:56.654Z,105.03
2023-02-01T16:39:25.230Z,103.90
2023-02-01T16:41:52.654Z,105.68
2023-02-01T16:44:20.525Z,114.55
2023-02-01T16:46:49.575Z,130.73
2023-02-01T16:49:26.658Z,143.00
2023-02-01T16:51:58.612Z,128.45
2023-02-01T16:54:27.608Z,115.70
2023-02-01T16:56:55.321Z,111.88
2023-02-01T16:59:22.786Z,115.82
2023-02-01T17:01:50.325Z,138.10
2023-02-01T17:04:18.514Z,126.35
2023-02-01T17:06:48.328Z,133.55
2023-02-01T17:09:15.999Z,119.53
2023-02-01T17:11:43.578Z,117.97
2023-02-01T17:14:19.987Z,106.93
2023-02-01T17:16:50.201Z,110.97
2023-02-01T17:19:24.283Z,112.63
2023-02-01T17:21:56.576Z,146.73
2023-02-01T17:24:35.777Z,123.78
2023-02-01T17:27:06.777Z,121.03
2023-02-01T17:29:34.224Z,136.13
2023-02-01T17:32:04.376Z,130.23
2023-02-01T17:34:33.093Z,127.28
2023-02-01T17:37:00.534Z,130.38
2023-02-01T17:39:46.699Z,120.32
2023-02-01T17:42:14.136Z,120.65
2023-02-01T17:44:41.603Z,133.75
2023-02-01T17:47:09.086Z,130.18
2023-02-01T17:49:38.930Z,118.13
2023-02-01T17:52:09.201Z,124.93
2023-02-01T17:54:37.697Z,131.55
2023-02-01T17:57:14.755Z,143.38
2023-02-01T17:59:42.536Z,156.65
2023-02-01T18:02:24.279Z,165.43
2023-02-01T18:04:52.653Z,165.45
2023-02-01T18:07:20.224Z,156.85
2023-02-01T18:09:47.743Z,130.80
2023-02-01T18:12:23.685Z,120.55
2023-02-01T18:14:51.384Z,121.03
2023-02-01T18:17:18.939Z,127.53
2023-02-01T18:19:46.460Z,115.32
2023-02-01T18:22:17.920Z,117.22
2023-02-01T18:24:45.464Z,132.70
2023-02-01T18:27:13.021Z,116.13
2023-02-01T18:29:40.535Z,121.55
2023-02-01T18:32:10.703Z,121.50
2023-02-01T18:34:38.212Z,115.32
2023-02-01T18:37:05.708Z,115.72
2023-02-01T18:39:33.227Z,125.50
2023-02-01T18:42:00.696Z,145.70
2023-02-01T18:44:28.186Z,120.25
2023-02-01T18:46:55.647Z,129.52
2023-02-01T18:49:23.097Z,137.93
2023-02-01T18:51:52.142Z,127.88
2023-02-01T18:54:20.111Z,116.63
2023-02-01T18:56:47.658Z,126.20
2023-02-01T18:59:17.378Z,120.45
2023-02-01T19:01:45.069Z,124.55
2023-02-01T19:04:20.331Z,125.90
2023-02-01T19:06:53.231Z,130.13
2023-02-01T19:09:20.741Z,160.25
2023-02-01T19:11:48.311Z,180.90
2023-02-01T19:14:15.781Z,169.25
2023-02-01T19:16:43.306Z,155.45
2023-02-01T19:19:10.731Z,151.57
2023-02-01T19:21:38.205Z,166.65
2023-02-01T19:24:06.076Z,171.40
2023-02-01T19:26:33.559Z,170.02
2023-02-01T19:29:01.629Z,177.40
2023-02-01T19:31:29.268Z,156.95
2023-02-01T19:33:56.910Z,164.75
2023-02-01T19:36:26.789Z,159.70
2023-02-01T19:38:54.262Z,165.63
2023-02-01T19:41:21.720Z,153.68
2023-02-01T19:43:49.141Z,165.98
2023-02-01T19:46:16.621Z,158.35
2023-02-01T19:48:44.170Z,167.10
2023-02-01T19:51:12.802Z,154.88
2023-02-01T19:53:40.300Z,162.98
2023-02-01T19:56:08.030Z,149.15
2023-02-01T19:58:35.532Z,159.73
2023-02-01T20:01:02.692Z,161.52
2023-02-01T20:03:30.185Z,161.32
2023-02-01T20:05:59.007Z,149.88
2023-02-01T20:08:26.521Z,159.85
2023-02-01T20:10:54.039Z,172.32
2023-02-01T20:13:21.486Z,159.27
2023-02-01T20:15:49.029Z,172.65
2023-02-01T20:18:16.563Z,156.05
2023-02-01T20:20:44.068Z,151.00
2023-02-01T20:23:11.626Z,146.40
2023-02-01T20:25:41.290Z,158.77
2023-02-01T20:28:08.953Z,149.70
2023-02-01T20:30:36.500Z,154.32
2023-02-01T20:33:04.059Z,162.68
2023-02-01T20:35:31.715Z,155.88
2023-02-01T20:38:01.798Z,141.07
2023-02-01T20:40:30.940Z,138.98
2023-02-01T20:42:58.827Z,148.93
2023-02-01T20:45:27.211Z,152.10
2023-02-01T20:47:54.784Z,139.68
2023-02-01T20:50:22.243Z,144.40
2023-02-01T20:52:49.772Z,139.63
2023-02-01T20:55:17.390Z,132.40
2023-02-01T20:57:44.949Z,155.75
2023-02-01T21:00:13.148Z,154.32
2023-02-01T21:02:40.748Z,130.73
2023-02-01T21:05:09.081Z,126.53
2023-02-01T21:07:37.894Z,141.43
2023-02-01T21:10:06.437Z,139.52
2023-02-01T21:12:34.024Z,127.57
2023-02-01T21:15:01.560Z,137.43
2023-02-01T21:17:31.627Z,139.63
2023-02-01T21:19:59.578Z,145.50
2023-02-01T21:22:27.043Z,139.27
2023-02-01T21:24:54.636Z,141.68
2023-02-01T21:27:22.227Z,144.90
2023-02-01T21:29:49.704Z,156.18
2023-02-01T21:32:17.311Z,155.85
2023-02-01T21:34:44.800Z,152.52
2023-02-01T21:37:12.272Z,171.88
2023-02-01T21:39:39.623Z,171.00
2023-02-01T21:42:18.251Z,156.70
2023-02-01T21:44:47.535Z,145.68
2023-02-01T21:47:17.409Z,174.70
2023-02-01T21:49:46.749Z,187.57
2023-02-01T21:52:18.050Z,168.93
2023-02-01T21:54:45.736Z,157.25
2023-02-01T21:57:13.345Z,166.38
2023-02-01T21:59:43.518Z,165.50
2023-02-01T22:02:16.200Z,166.48
2023-02-01T22:04:44.378Z,158.52
2023-02-01T22:07:12.357Z,154.80
2023-02-01T22:09:40.402Z,166.65
2023-02-01T22:12:09.844Z,174.90
2023-02-01T22:14:38.674Z,164.20
2023-02-01T22:17:06.555Z,162.27
2023-02-01T22:19:34.058Z,192.93
2023-02-01T22:22:01.679Z,186.05
2023-02-01T22:24:29.222Z,172.40
2023-02-01T22:26:56.660Z,161.88
2023-02-01T22:29:43.031Z,162.45
2023-02-01T22:32:13.216Z,153.95
2023-02-01T22:34:41.293Z,168.77
2023-02-01T22:37:09.837Z,159.13
2023-02-01T22:39:38.552Z,174.93
2023-02-01T22:42:06.428Z,165.30
2023-02-01T22:44:33.879Z,166.70
2023-02-01T22:47:01.399Z,152.40
2023-02-01T22:49:28.925Z,160.85
2023-02-01T22:51:56.574Z,157.45
2023-02-01T22:54:24.018Z,155.57
2023-02-01T22:56:51.512Z,168.27
2023-02-01T22:59:19.096Z,182.40
2023-02-01T23:01:46.558Z,173.90
2023-02-01T23:04:15.136Z,183.65
2023-02-01T23:06:42.652Z,191.25
2023-02-01T23:09:22.041Z,176.70
2023-02-01T23:11:49.990Z,165.82
2023-02-01T23:14:18.063Z,163.10
2023-02-01T23:16:46.944Z,153.60
2023-02-01T23:19:14.635Z,178.82
2023-02-01T23:21:42.573Z,166.13
2023-02-01T23:24:11.232Z,167.43
2023-02-01T23:26:39.041Z,173.82
2023-02-01T23:29:06.531Z,167.07
2023-02-01T23:31:35.797Z,166.43
2023-02-01T23:34:04.255Z,157.60
2023-02-01T23:36:33.879Z,165.07
2023-02-01T23:39:01.801Z,158.43
2023-02-01T23:41:30.187Z,150.82
2023-02-01T23:43:58.004Z,161.27
2023-02-01T23:46:34.035Z,146.18
2023-02-01T23:49:03.174Z,156.32
2023-02-01T23:51:30.961Z,155.50
2023-02-01T23:53:58.708Z,155.63
2023-02-01T23:56:33.311Z,150.68
2023-02-01T23:59:02.979Z,150.88
